Time;durP1;ratioP1;P1;durP2;ratioP2;P2;SDS_P1;SDS_P2;PMS_P1;PMS_P2;Temp;Humidity;BMP_temperature;BMP_pressure;BME280_temperature;BME280_humidity;BME280_pressure;Samples;Min_cycle;Max_cycle;Signal;HPM_P1;HPM_P2
2023/11/23 00:00:32;;;;;;;3.22;2.28;;;;;;;-145.63;44.54;39084.88;4928609;29;20027;-66
2023/11/23 00:02:58;;;;;;;3.05;2.50;;;;;;;-145.63;44.74;39059.44;4944590;29;20099;-66
2023/11/23 00:05:24;;;;;;;2.63;2.35;;;;;;;-145.63;45.87;39053.59;4944894;29;20177;-67
2023/11/23 00:07:49;;;;;;;2.60;2.30;;;;;;;-145.63;45.69;39037.94;4944704;29;20034;-67
2023/11/23 00:10:15;;;;;;;3.60;2.45;;;;;;;-145.63;47.52;39153.31;4944744;29;20024;-67
2023/11/23 00:12:41;;;;;;;2.83;2.63;;;;;;;-145.63;46.87;39035.97;4944660;29;20023;-67
2023/11/23 00:15:07;;;;;;;2.80;2.50;;;;;;;-145.63;47.57;39039.88;4944032;29;20240;-66
2023/11/23 00:17:33;;;;;;;2.60;2.40;;;;;;;-145.63;48.37;39055.53;4944700;29;20031;-67
2023/11/23 00:20:00;;;;;;;3.00;2.70;;;;;;;-145.63;48.67;39039.88;4944421;29;20031;-67
2023/11/23 00:22:28;;;;;;;4.82;2.70;;;;;;;-145.63;48.73;39028.16;4944573;29;20091;-66
2023/11/23 00:24:55;;;;;;;3.40;2.92;;;;;;;-145.63;47.65;39051.63;4944709;29;20094;-66
2023/11/23 00:27:20;;;;;;;3.35;3.00;;;;;;;-145.63;48.96;39055.53;4944384;29;20035;-67
2023/11/23 00:29:46;;;;;;;3.30;2.78;;;;;;;-145.63;49.62;39035.97;4934121;29;20056;-68
2023/11/23 00:32:12;;;;;;;6.00;2.80;;;;;;;-145.63;49.14;39043.81;4938024;29;20245;-66
2023/11/23 00:34:38;;;;;;;3.10;2.80;;;;;;;-145.63;49.29;39028.16;4943670;29;20034;-67
2023/11/23 00:37:07;;;;;;;3.05;2.50;;;;;;;-145.63;48.94;39032.06;4944457;29;20046;-65
2023/11/23 00:39:34;;;;;;;4.90;2.78;;;;;;;-145.63;47.59;39034.03;4944920;29;20103;-67
2023/11/23 00:41:59;;;;;;;2.75;2.40;;;;;;;-145.63;47.34;39000.78;4944439;29;20039;-67
2023/11/23 00:44:25;;;;;;;4.63;2.42;;;;;;;-145.63;47.03;39039.88;4944641;29;20038;-66
2023/11/23 00:46:51;;;;;;;2.78;2.05;;;;;;;-145.63;47.61;39086.81;4975925;28;20027;-68
2023/11/23 00:49:17;;;;;;;2.85;2.03;;;;;;;-145.63;47.02;39024.25;4951551;29;20083;-67
2023/11/23 00:51:44;;;;;;;3.28;2.05;;;;;;;-145.63;46.21;39024.25;4947811;29;20039;-66
2023/11/23 00:54:10;;;;;;;2.30;2.10;;;;;;;-145.63;46.51;39004.69;4948047;29;20032;-67
2023/11/23 00:56:39;;;;;;;3.58;2.00;;;;;;;-145.63;45.06;39049.66;4947732;29;20134;-66
2023/11/23 00:59:04;;;;;;;3.38;2.10;;;;;;;-145.63;45.76;39008.59;4947766;29;20030;-67
2023/11/23 01:01:30;;;;;;;3.22;2.20;;;;;;;-145.63;44.65;39000.78;4947857;28;20029;-66
2023/11/23 01:03:56;;;;;;;2.85;2.22;;;;;;;-145.63;44.34;39008.59;4946594;29;20040;-67
2023/11/23 01:06:22;;;;;;;2.70;2.30;;;;;;;-145.63;45.10;38983.19;4938905;29;20031;-67
2023/11/23 01:08:47;;;;;;;3.38;2.40;;;;;;;-145.63;44.66;39028.16;4945386;29;20047;-66
2023/11/23 01:11:14;;;;;;;3.28;2.20;;;;;;;-145.63;45.93;39002.72;4947492;29;20108;-67
2023/11/23 01:13:41;;;;;;;4.20;2.53;;;;;;;-145.63;44.86;39030.13;4947494;29;20034;-67
2023/11/23 01:16:08;;;;;;;3.60;2.17;;;;;;;-145.63;45.40;39026.19;4946675;29;20031;-67
2023/11/23 01:18:34;;;;;;;3.15;2.45;;;;;;;-145.63;44.27;38994.91;4947484;29;20024;-66
2023/11/23 01:20:59;;;;;;;2.80;1.88;;;;;;;-145.63;44.31;39008.59;4947176;29;20055;-67
2023/11/23 01:23:26;;;;;;;2.60;2.00;;;;;;;-145.63;44.69;38971.44;4947460;29;20031;-67
2023/11/23 01:25:52;;;;;;;2.92;2.22;;;;;;;-145.63;43.95;39047.72;4942779;29;20035;-67
2023/11/23 01:28:18;;;;;;;2.38;1.73;;;;;;;-145.63;44.32;39014.47;4932992;29;20241;-67
2023/11/23 01:30:44;;;;;;;2.85;2.20;;;;;;;-145.63;44.00;39039.88;4947315;29;20039;-67
2023/11/23 01:33:11;;;;;;;2.30;2.08;;;;;;;-145.63;44.06;38992.97;4947157;29;20252;-67
2023/11/23 01:35:37;;;;;;;1.92;1.83;;;;;;;-145.63;43.66;39008.59;4947175;29;20054;-66
2023/11/23 01:38:03;;;;;;;3.05;1.65;;;;;;;-145.63;43.53;39022.28;4946817;29;20351;-67
2023/11/23 01:40:30;;;;;;;1.58;1.48;;;;;;;-145.63;43.09;39008.59;4947009;29;20327;-66
2023/11/23 01:43:05;;;;;;;2.08;1.50;;;;;;;-145.63;43.21;39030.13;4948688;29;20028;-67
2023/11/23 01:45:31;;;;;;;1.58;1.48;;;;;;;-145.63;43.01;39129.84;4962852;28;20027;-66
2023/11/23 01:47:57;;;;;;;1.92;1.63;;;;;;;-145.63;42.75;38887.34;4946369;29;20245;-66
2023/11/23 01:50:25;;;;;;;2.00;1.80;;;;;;;-145.63;43.76;39024.25;4947766;29;20027;-67
2023/11/23 01:52:52;;;;;;;1.80;1.70;;;;;;;-145.63;42.72;39127.91;4946558;29;20059;-68
2023/11/23 01:55:18;;;;;;;1.92;1.80;;;;;;;-145.63;43.63;39026.19;4946380;29;20450;-66
2023/11/23 01:57:50;;;;;;;2.53;1.83;;;;;;;-145.63;44.61;39034.03;4946505;29;20027;-66
2023/11/23 02:00:16;;;;;;;1.75;1.65;;;;;;;-145.63;44.31;39012.50;4943510;29;20091;-67
2023/11/23 02:02:42;;;;;;;1.88;1.77;;;;;;;-145.63;44.35;39032.06;4941856;29;20301;-68
2023/11/23 02:05:09;;;;;;;2.17;2.00;;;;;;;-145.63;44.49;39024.25;4946556;29;20045;-66
2023/11/23 02:07:35;;;;;;;1.80;1.70;;;;;;;-145.63;44.58;38989.03;4946531;29;20079;-66
2023/11/23 02:10:03;;;;;;;1.77;1.67;;;;;;;-145.63;45.07;39039.88;4946334;29;20253;-68
2023/11/23 02:12:31;;;;;;;2.28;2.08;;;;;;;-145.63;45.54;39012.50;4946678;29;20091;-66
2023/11/23 02:15:00;;;;;;;2.85;1.60;;;;;;;-145.63;44.63;38883.44;4945733;29;20059;-68
2023/11/23 02:17:26;;;;;;;1.70;1.60;;;;;;;-145.63;44.73;38748.50;4946517;29;20132;-69
2023/11/23 02:19:52;;;;;;;1.77;1.67;;;;;;;-145.63;44.96;39016.44;4946280;29;20023;-69
2023/11/23 02:22:18;;;;;;;1.38;1.27;;;;;;;-145.63;44.09;38807.19;4946458;29;20036;-66
2023/11/23 02:24:44;;;;;;;2.13;1.55;;;;;;;-145.63;44.11;39020.34;4946234;29;20059;-68
2023/11/23 02:27:11;;;;;;;1.73;1.42;;;;;;;-145.63;43.87;39020.34;4946081;29;20327;-67
2023/11/23 02:29:38;;;;;;;3.38;1.63;;;;;;;-145.63;44.69;39035.97;4946119;29;20039;-67
2023/11/23 02:32:08;;;;;;;1.50;1.40;;;;;;;-145.63;44.56;39004.69;4939966;29;20095;-68
2023/11/23 02:34:35;;;;;;;1.60;1.50;;;;;;;-145.63;44.73;39008.59;4946071;29;20027;-69
2023/11/23 02:37:01;;;;;;;2.95;1.60;;;;;;;-145.63;44.72;39008.59;4945737;29;20027;-69
2023/11/23 02:39:27;;;;;;;2.03;1.80;;;;;;;-145.63;45.11;39012.50;4945945;29;20031;-69
2023/11/23 02:41:54;;;;;;;1.63;1.52;;;;;;;-145.63;44.10;39057.50;4949070;29;20083;-67
2023/11/23 02:44:20;;;;;;;2.53;1.75;;;;;;;-145.63;44.67;39028.16;4945959;29;20035;-67
2023/11/23 02:46:46;;;;;;;2.40;1.92;;;;;;;-145.63;44.58;39010.56;4940502;29;20583;-68
2023/11/23 02:49:12;;;;;;;2.80;1.65;;;;;;;-145.63;45.15;39035.97;4950440;29;20037;-68
2023/11/23 02:51:37;;;;;;;1.73;1.35;;;;;;;-145.63;44.81;39028.16;4945860;29;20377;-67
2023/11/23 02:54:04;;;;;;;1.70;1.60;;;;;;;-145.63;44.44;39034.03;4945611;29;20208;-68
2023/11/23 02:56:29;;;;;;;1.40;1.30;;;;;;;-145.63;44.14;39039.88;4945710;29;20039;-68
2023/11/23 02:58:55;;;;;;;1.95;1.55;;;;;;;-145.63;43.95;39026.19;4945663;29;20095;-67
2023/11/23 03:01:21;;;;;;;1.98;1.77;;;;;;;-145.63;44.66;39012.50;4945180;29;20043;-69
2023/11/23 03:03:48;;;;;;;2.15;1.42;;;;;;;-145.63;45.43;39069.22;4945569;29;20070;-69
2023/11/23 03:06:14;;;;;;;1.67;1.58;;;;;;;-145.63;44.56;38955.81;4933910;29;20023;-69
2023/11/23 03:08:40;;;;;;;1.90;1.80;;;;;;;-145.63;45.75;39004.69;4944867;29;20038;-69
2023/11/23 03:11:06;;;;;;;2.67;1.70;;;;;;;-145.63;45.77;39008.59;4955607;28;20047;-66
2023/11/23 03:13:32;;;;;;;1.50;1.40;;;;;;;-145.63;44.33;39034.03;4964648;28;20027;-68
2023/11/23 03:15:58;;;;;;;1.70;1.60;;;;;;;-145.63;44.03;39010.56;4949796;28;20054;-68
2023/11/23 03:18:23;;;;;;;1.40;1.25;;;;;;;-145.63;42.73;38994.91;4945171;29;20028;-67
2023/11/23 03:20:49;;;;;;;1.63;1.52;;;;;;;-145.63;43.16;39012.50;4945126;29;20055;-67
2023/11/23 03:23:15;;;;;;;2.25;1.30;;;;;;;-145.63;44.07;39037.94;4945105;29;20032;-67
2023/11/23 03:25:40;;;;;;;1.48;1.38;;;;;;;-145.63;43.84;39039.88;4945182;29;20087;-68
2023/11/23 03:28:07;;;;;;;2.72;1.98;;;;;;;-145.63;44.14;39010.56;4945012;29;20371;-68
2023/11/23 03:30:35;;;;;;;1.50;1.40;;;;;;;-145.63;42.77;39020.34;4945239;29;20031;-67
2023/11/23 03:33:01;;;;;;;1.90;1.40;;;;;;;-145.63;42.73;39143.53;4944060;29;20046;-67
2023/11/23 03:35:27;;;;;;;1.75;1.55;;;;;;;-145.63;42.47;39016.44;4944983;29;20055;-67
2023/11/23 03:37:53;;;;;;;1.60;1.45;;;;;;;-145.63;42.30;39012.50;4945135;29;20413;-67
2023/11/23 03:40:18;;;;;;;1.45;1.35;;;;;;;-145.63;43.66;39012.50;4944806;29;20112;-67
2023/11/23 03:42:44;;;;;;;1.70;1.60;;;;;;;-145.63;42.80;39032.06;4933970;29;20090;-67
2023/11/23 03:45:10;;;;;;;2.30;2.10;;;;;;;-145.63;43.34;39024.25;4944139;29;20099;-68
2023/11/23 03:47:36;;;;;;;1.50;1.38;;;;;;;-145.63;42.33;38996.88;4940709;29;20266;-69
2023/11/23 03:50:01;;;;;;;1.70;1.60;;;;;;;-145.63;43.00;39006.66;4950171;29;20035;-69
2023/11/23 03:52:29;;;;;;;1.65;1.55;;;;;;;-145.63;42.43;39012.50;4941769;29;20043;-68
2023/11/23 03:54:54;;;;;;;3.78;1.75;;;;;;;-145.63;42.64;39049.66;4945109;29;20216;-68
2023/11/23 03:57:20;;;;;;;1.98;1.85;;;;;;;-145.63;43.23;39028.16;4944941;29;20079;-67
2023/11/23 03:59:46;;;;;;;1.70;1.60;;;;;;;-145.63;43.64;39032.06;4944738;29;20095;-67
2023/11/23 04:02:11;;;;;;;3.13;1.65;;;;;;;-145.63;43.51;38992.97;4944895;29;20028;-67
2023/11/23 04:04:38;;;;;;;1.65;1.55;;;;;;;-145.63;43.42;39004.69;4943692;29;20252;-68
2023/11/23 04:07:03;;;;;;;2.30;1.83;;;;;;;-145.63;44.10;38328.13;4946396;29;20024;-67
2023/11/23 04:09:29;;;;;;;1.88;1.77;;;;;;;-145.63;43.77;39035.97;4964115;28;20027;-67
2023/11/23 04:11:55;;;;;;;1.70;1.60;;;;;;;-145.63;44.03;39018.38;4945131;28;20028;-67
2023/11/23 04:14:21;;;;;;;1.60;1.50;;;;;;;-145.63;44.84;39037.94;4936439;29;20035;-66
2023/11/23 04:16:47;;;;;;;2.63;2.20;;;;;;;-145.63;45.09;39028.16;4944994;29;20043;-66
2023/11/23 04:19:12;;;;;;;2.63;2.20;;;;;;;-145.63;44.79;39004.69;4944698;29;20047;-67
2023/11/23 04:21:38;;;;;;;2.63;2.33;;;;;;;-145.63;45.66;38938.19;4947758;29;20043;-66
2023/11/23 04:24:04;;;;;;;2.35;2.15;;;;;;;-145.63;45.45;38754.38;4948090;29;20027;-69
2023/11/23 04:26:31;;;;;;;5.13;2.20;;;;;;;-145.63;44.75;39045.75;4938641;29;20100;-68
2023/11/23 04:28:57;;;;;;;2.55;2.10;;;;;;;-145.63;44.63;39020.34;4937627;29;20024;-68
2023/11/23 04:31:26;;;;;;;2.38;2.15;;;;;;;-145.63;44.21;39034.03;4948334;29;20046;-67
2023/11/23 04:33:51;;;;;;;3.17;2.10;;;;;;;-145.63;43.86;39026.19;4947915;29;20040;-67
2023/11/23 04:36:17;;;;;;;2.33;2.13;;;;;;;-145.63;43.13;39053.59;4940809;29;20213;-69
2023/11/23 04:38:43;;;;;;;2.35;2.10;;;;;;;-145.63;43.83;39028.16;4948227;29;20079;-68
2023/11/23 04:41:09;;;;;;;2.72;2.50;;;;;;;-145.63;43.83;38947.97;4947957;29;20043;-68
2023/11/23 04:43:34;;;;;;;2.50;2.30;;;;;;;-145.63;43.60;39024.25;4948173;29;20095;-67
2023/11/23 04:46:00;;;;;;;3.92;2.90;;;;;;;-145.63;43.00;38996.88;4942699;29;20028;-67
2023/11/23 04:48:26;;;;;;;4.40;2.55;;;;;;;-145.63;43.25;39008.59;4950287;29;20023;-69
2023/11/23 04:50:52;;;;;;;3.67;2.70;;;;;;;-145.63;42.87;39067.28;4951318;28;20026;-67
2023/11/23 04:53:18;;;;;;;4.65;2.72;;;;;;;-145.63;42.99;39047.72;4947933;29;20040;-67
2023/11/23 04:55:43;;;;;;;2.92;2.50;;;;;;;-145.63;43.33;39032.06;4951557;29;20030;-68
2023/11/23 04:58:09;;;;;;;3.13;2.83;;;;;;;-145.63;44.12;39008.59;4947689;29;20027;-67
2023/11/23 05:00:35;;;;;;;3.72;3.20;;;;;;;-145.63;43.78;39024.25;4947719;29;20148;-68
2023/11/23 05:03:01;;;;;;;3.50;3.20;;;;;;;-145.63;43.66;39004.69;4947851;29;20177;-67
2023/11/23 05:05:27;;;;;;;2.85;2.50;;;;;;;-145.63;42.58;39045.75;4946114;29;20051;-66
2023/11/23 05:07:53;;;;;;;3.30;3.00;;;;;;;-145.63;43.06;39073.13;4936016;29;20035;-66
2023/11/23 05:10:20;;;;;;;2.72;2.50;;;;;;;-145.63;42.22;39051.63;4947339;29;20040;-67
2023/11/23 05:12:45;;;;;;;3.80;2.70;;;;;;;-145.63;42.28;38908.88;4947491;29;20082;-66
2023/11/23 05:15:11;;;;;;;2.75;2.40;;;;;;;-145.63;42.97;39028.16;4946426;29;20070;-68
2023/11/23 05:17:37;;;;;;;2.78;2.38;;;;;;;-145.63;41.97;38946.03;4947631;29;20032;-68
2023/11/23 05:20:04;;;;;;;2.70;2.30;;;;;;;-145.63;42.29;38869.75;4947020;29;20194;-68
2023/11/23 05:22:30;;;;;;;2.85;2.10;;;;;;;-145.63;42.97;38985.13;4947291;29;20028;-69
2023/11/23 05:24:56;;;;;;;2.28;1.90;;;;;;;-145.63;43.93;38991.00;4947288;29;20091;-68
2023/11/23 05:27:21;;;;;;;2.85;1.75;;;;;;;-145.63;41.99;38992.97;4929553;29;20261;-70
2023/11/23 05:29:47;;;;;;;2.38;1.95;;;;;;;-145.63;43.33;39043.81;4941383;29;20027;-68
2023/11/23 05:32:13;;;;;;;2.63;2.28;;;;;;;-145.63;43.23;38991.00;4946769;29;20044;-68
2023/11/23 05:34:39;;;;;;;2.83;1.95;;;;;;;-145.63;43.51;38992.97;4946989;29;20034;-68
2023/11/23 05:37:04;;;;;;;2.38;2.03;;;;;;;-145.63;42.88;39016.44;4946818;29;20027;-69
2023/11/23 05:39:30;;;;;;;2.55;1.90;;;;;;;-145.63;42.52;39008.59;4947114;29;20050;-67
2023/11/23 05:41:56;;;;;;;1.95;1.80;;;;;;;-145.63;42.90;38754.38;4962581;29;20338;-68
2023/11/23 05:44:22;;;;;;;2.25;1.92;;;;;;;-145.63;42.91;38991.00;4955569;28;20023;-67
2023/11/23 05:46:47;;;;;;;1.92;1.65;;;;;;;-145.63;42.31;39008.59;4941378;29;20086;-68
2023/11/23 05:49:13;;;;;;;2.42;1.90;;;;;;;-145.63;42.39;38977.31;4947574;29;20030;-67
2023/11/23 05:51:39;;;;;;;2.17;1.90;;;;;;;-145.63;42.12;38994.91;4946607;29;20028;-68
2023/11/23 05:54:05;;;;;;;2.20;2.00;;;;;;;-145.63;42.51;38965.56;4946503;29;20035;-68
2023/11/23 05:56:31;;;;;;;4.35;2.30;;;;;;;-145.63;42.71;39012.50;4946558;29;20201;-67
2023/11/23 05:58:57;;;;;;;4.43;2.33;;;;;;;-145.63;43.95;38981.22;4946674;29;20024;-71
2023/11/23 06:01:22;;;;;;;4.88;2.63;;;;;;;-145.63;42.56;38991.00;4946294;29;20038;-70
2023/11/23 06:03:49;;;;;;;5.03;2.63;;;;;;;-145.63;42.78;38818.91;4928475;29;20099;-67
2023/11/23 06:06:23;;;;;;;3.47;2.20;;;;;;;-145.63;42.94;38973.41;4937375;29;20040;-70
2023/11/23 06:08:50;;;;;;;2.53;2.17;;;;;;;-145.63;42.95;39024.25;4941733;29;20209;-68
2023/11/23 06:11:18;;;;;;;3.47;2.17;;;;;;;-145.63;43.86;38398.50;4946539;29;20094;-69
2023/11/23 06:13:45;;;;;;;2.90;2.25;;;;;;;-145.63;42.96;38965.56;4946282;29;20086;-70
2023/11/23 06:16:12;;;;;;;2.40;2.20;;;;;;;-145.63;42.97;38989.03;4945409;29;20036;-71
2023/11/23 06:18:38;;;;;;;2.90;2.47;;;;;;;-145.63;42.92;38895.19;4946455;29;20059;-67
2023/11/23 06:21:04;;;;;;;6.38;2.60;;;;;;;-145.63;44.30;38961.66;4946105;29;20035;-68
2023/11/23 06:23:30;;;;;;;3.78;2.55;;;;;;;-145.63;43.76;39035.97;4946252;29;20031;-68
2023/11/23 06:25:57;;;;;;;4.22;2.58;;;;;;;-145.63;43.04;38957.75;4940616;29;20387;-67
2023/11/23 06:28:23;;;;;;;3.78;2.58;;;;;;;-145.63;43.92;38973.41;4929848;29;20035;-66
2023/11/23 06:30:50;;;;;;;3.80;2.65;;;;;;;-145.63;44.16;38957.75;4945967;29;20055;-67
2023/11/23 06:33:16;;;;;;;3.10;2.80;;;;;;;-145.63;44.08;38965.56;4945753;29;20031;-66
2023/11/23 06:35:42;;;;;;;4.80;3.50;;;;;;;-145.63;44.61;38989.03;4946275;29;20020;-67
2023/11/23 06:38:08;;;;;;;4.07;3.10;;;;;;;-145.63;44.56;38949.94;4953301;29;20090;-65
2023/11/23 06:40:34;;;;;;;4.05;3.10;;;;;;;-145.63;43.52;38998.81;4958596;28;20023;-67
2023/11/23 06:43:04;;;;;;;6.20;3.22;;;;;;;-145.63;44.20;38992.97;4926432;29;20027;-68
2023/11/23 06:45:30;;;;;;;5.07;2.70;;;;;;;-145.63;44.27;38979.28;4928134;29;20036;-67
2023/11/23 06:47:57;;;;;;;7.90;2.88;;;;;;;-145.63;44.29;38992.97;4945364;29;20049;-69
2023/11/23 06:50:23;;;;;;;3.03;2.63;;;;;;;-145.63;44.41;39114.22;4952546;29;20223;-69
2023/11/23 06:52:49;;;;;;;3.03;2.47;;;;;;;-145.63;44.16;38975.34;4945860;29;20042;-68
2023/11/23 06:55:15;;;;;;;3.40;2.47;;;;;;;-145.63;43.57;38967.53;4945455;29;20304;-68
2023/11/23 06:57:47;;;;;;;3.97;2.40;;;;;;;-145.63;43.11;38983.19;4950048;29;20031;-66
2023/11/23 07:00:22;;;;;;;4.55;2.13;;;;;;;-145.63;42.83;38965.56;4954607;28;20019;-67
2023/11/23 07:02:55;;;;;;;2.25;2.05;;;;;;;-145.63;42.94;38967.53;4953583;29;20212;-69
2023/11/23 07:05:23;;;;;;;3.80;2.25;;;;;;;-145.63;43.46;38955.81;4952569;29;20067;-69
2023/11/23 07:07:49;;;;;;;3.22;2.17;;;;;;;-145.63;43.62;38987.09;4955036;29;20078;-65
2023/11/23 07:10:17;;;;;;;2.17;1.95;;;;;;;-145.63;44.33;38957.75;4947823;29;20030;-67
2023/11/23 07:12:44;;;;;;;2.42;2.22;;;;;;;-145.63;44.31;38959.72;4943502;29;20089;-67
2023/11/23 07:15:14;;;;;;;3.25;2.35;;;;;;;-145.63;43.55;38975.34;4953211;28;20059;-65
2023/11/23 07:17:41;;;;;;;3.85;2.60;;;;;;;-145.63;44.48;38983.19;4945504;29;20074;-66
2023/11/23 07:20:11;;;;;;;5.38;2.40;;;;;;;-145.63;43.92;38983.19;4945320;29;20181;-66
2023/11/23 07:22:39;;;;;;;3.65;2.45;;;;;;;-145.63;44.75;38971.44;4945457;29;20216;-68
2023/11/23 07:25:08;;;;;;;4.63;2.22;;;;;;;-145.63;44.38;38967.53;4945403;29;20050;-68
2023/11/23 07:27:34;;;;;;;2.40;2.20;;;;;;;-145.63;44.25;38959.72;4934486;29;20393;-66
2023/11/23 07:29:59;;;;;;;2.67;2.17;;;;;;;-145.63;44.01;38934.28;4945268;29;20091;-65
2023/11/23 07:32:25;;;;;;;4.53;2.20;;;;;;;-145.63;44.63;38973.41;4944048;29;20044;-65
2023/11/23 07:34:51;;;;;;;2.53;2.10;;;;;;;-145.63;44.63;38963.63;4945396;29;20023;-68
2023/11/23 07:37:17;;;;;;;2.30;2.10;;;;;;;-145.63;44.25;38949.94;4944664;29;20020;-66
2023/11/23 07:39:44;;;;;;;3.63;2.40;;;;;;;-145.63;44.06;38989.03;4944873;29;20027;-66
2023/11/23 07:42:10;;;;;;;4.05;2.40;;;;;;;-145.63;43.11;38975.34;4930269;29;20028;-67
2023/11/23 07:44:35;;;;;;;2.58;2.20;;;;;;;-145.63;43.89;38994.91;4939368;29;20039;-67
2023/11/23 07:47:01;;;;;;;3.95;2.42;;;;;;;-145.63;42.90;39034.03;4938683;29;20090;-67
2023/11/23 07:49:27;;;;;;;4.07;2.30;;;;;;;-145.63;43.57;38996.88;4952404;29;20091;-66
2023/11/23 07:51:55;;;;;;;2.92;2.00;;;;;;;-145.63;43.49;38951.88;4945124;29;20019;-63
2023/11/23 07:54:21;;;;;;;27.25;8.85;;;;;;;-145.63;44.21;39010.56;4945779;29;20043;-68
2023/11/23 07:56:46;;;;;;;4.50;2.60;;;;;;;-145.63;43.28;38947.97;4959567;28;20023;-65
2023/11/23 07:59:12;;;;;;;2.63;2.17;;;;;;;-145.63;42.33;38973.41;4931521;29;20299;-66
2023/11/23 08:01:38;;;;;;;4.32;2.40;;;;;;;-145.63;43.36;38975.34;4948635;29;20066;-67
2023/11/23 08:04:04;;;;;;;2.50;2.15;;;;;;;-145.63;43.62;38998.81;4948328;29;20040;-68
2023/11/23 08:06:29;;;;;;;3.50;2.13;;;;;;;-145.63;41.90;38977.31;4948794;29;20068;-70
2023/11/23 08:08:56;;;;;;;2.38;1.85;;;;;;;-145.63;42.36;38549.06;4949031;29;20027;-69
2023/11/23 08:11:22;;;;;;;2.53;2.08;;;;;;;-145.63;42.08;38953.84;4947576;29;20055;-67
2023/11/23 08:13:49;;;;;;;3.47;2.10;;;;;;;-145.63;43.04;38981.22;4948443;29;20027;-68
2023/11/23 08:16:15;;;;;;;3.78;2.30;;;;;;;-145.63;42.58;39000.78;4948039;29;20032;-70
2023/11/23 08:18:41;;;;;;;3.08;2.08;;;;;;;-145.63;42.28;38955.81;4947870;29;20046;-67
2023/11/23 08:21:07;;;;;;;4.18;2.42;;;;;;;-145.63;42.13;38987.09;4948120;29;20032;-68
2023/11/23 08:23:33;;;;;;;3.55;2.35;;;;;;;-145.63;42.18;38402.41;4948412;29;20066;-68
2023/11/23 08:26:00;;;;;;;3.85;2.30;;;;;;;-145.63;43.21;38983.19;4979227;28;20099;-65
2023/11/23 08:28:26;;;;;;;3.53;2.22;;;;;;;-145.63;41.97;38967.53;4948474;29;20030;-69
2023/11/23 08:30:52;;;;;;;4.22;2.25;;;;;;;-145.63;42.52;38756.34;4948360;29;20043;-66
2023/11/23 08:33:17;;;;;;;2.90;2.03;;;;;;;-145.63;43.30;38963.63;4948152;29;20593;-67
2023/11/23 08:35:44;;;;;;;3.13;1.90;;;;;;;-145.63;43.11;38961.66;4948683;29;20106;-68
2023/11/23 08:38:13;;;;;;;2.50;1.80;;;;;;;-145.63;42.76;38942.13;4954976;29;20027;-67
2023/11/23 08:40:39;;;;;;;3.35;2.30;;;;;;;-145.63;42.65;38947.97;4963477;28;20197;-67
2023/11/23 08:43:06;;;;;;;3.20;2.22;;;;;;;-145.63;43.19;38938.19;4948133;29;20091;-69
2023/11/23 08:45:32;;;;;;;2.50;1.98;;;;;;;-145.63;42.75;38951.88;4963964;29;20345;-68
2023/11/23 08:47:57;;;;;;;5.82;2.53;;;;;;;-145.63;41.40;38934.28;4946788;29;20099;-68
2023/11/23 08:50:23;;;;;;;2.65;2.10;;;;;;;-145.63;41.77;38983.19;4955668;29;20024;-71
2023/11/23 08:52:49;;;;;;;6.22;2.30;;;;;;;-145.63;41.72;38969.50;4946796;29;20031;-71
2023/11/23 08:55:15;;;;;;;5.75;2.40;;;;;;;-145.63;42.50;38865.84;4947746;29;20207;-70
2023/11/23 08:57:41;;;;;;;5.45;2.45;;;;;;;-145.63;42.00;39016.44;4947964;29;20054;-70
2023/11/23 09:00:11;;;;;;;3.50;2.45;;;;;;;-145.63;42.09;38384.81;4930434;29;20030;-68
2023/11/23 09:02:38;;;;;;;4.05;2.10;;;;;;;-145.63;42.08;39000.78;4948059;29;20031;-68
2023/11/23 09:05:06;;;;;;;3.47;2.28;;;;;;;-145.63;41.72;39016.44;4947273;29;20032;-68
2023/11/23 09:07:32;;;;;;;5.30;2.70;;;;;;;-145.63;41.61;38992.97;4946963;28;20040;-66
2023/11/23 09:09:58;;;;;;;2.88;2.45;;;;;;;-145.63;41.00;39012.50;4978596;28;20409;-69
2023/11/23 09:12:25;;;;;;;5.90;2.78;;;;;;;-145.63;42.37;38985.13;4958498;29;20031;-70
2023/11/23 09:14:53;;;;;;;3.95;2.50;;;;;;;-145.63;41.76;38989.03;4940905;29;20028;-68
2023/11/23 09:17:19;;;;;;;6.47;2.97;;;;;;;-145.63;42.31;38994.91;4947378;29;20031;-66
2023/11/23 09:19:46;;;;;;;2.75;2.55;;;;;;;-145.63;42.09;39020.34;4947040;29;20090;-67
2023/11/23 09:22:13;;;;;;;3.92;2.47;;;;;;;-145.63;42.16;38973.41;4947357;29;20070;-66
2023/11/23 09:24:38;;;;;;;5.90;2.70;;;;;;;-145.63;41.42;38957.75;4928198;29;20051;-67
2023/11/23 09:27:06;;;;;;;5.25;2.78;;;;;;;-145.63;42.79;38975.34;4929179;29;20048;-66
2023/11/23 09:29:31;;;;;;;5.40;3.03;;;;;;;-145.63;42.61;38983.19;4938264;29;20036;-66
2023/11/23 09:31:58;;;;;;;2.97;2.40;;;;;;;-145.63;42.33;38977.31;4946706;29;20092;-67
2023/11/23 09:34:24;;;;;;;3.05;2.33;;;;;;;-145.63;42.14;39000.78;4946845;29;20058;-67
2023/11/23 09:36:50;;;;;;;3.03;2.47;;;;;;;-145.63;42.75;38994.91;4946962;29;20300;-68
2023/11/23 09:39:17;;;;;;;4.30;2.80;;;;;;;-145.63;43.00;39006.66;4945779;29;20024;-67
2023/11/23 09:41:44;;;;;;;4.45;2.65;;;;;;;-145.63;42.29;39008.59;4947136;29;20101;-67
2023/11/23 09:44:10;;;;;;;5.53;3.10;;;;;;;-145.63;42.92;39004.69;4944586;29;20051;-67
2023/11/23 09:46:38;;;;;;;5.03;2.83;;;;;;;-145.63;42.62;39039.88;4946758;29;20023;-68
2023/11/23 09:49:11;;;;;;;4.32;2.90;;;;;;;-145.63;42.47;39016.44;4945211;29;20024;-69
2023/11/23 09:51:38;;;;;;;4.43;2.30;;;;;;;-145.63;43.53;38992.97;4944238;29;20078;-67
2023/11/23 09:54:05;;;;;;;5.45;2.60;;;;;;;-145.63;43.17;38961.66;4945423;29;20378;-68
2023/11/23 09:56:31;;;;;;;5.22;2.70;;;;;;;-145.63;42.51;38979.28;4946353;29;20036;-68
2023/11/23 09:58:57;;;;;;;5.10;2.60;;;;;;;-145.63;43.36;38989.03;4946745;29;20020;-69
2023/11/23 10:01:30;;;;;;;6.95;2.53;;;;;;;-145.63;43.31;39004.69;4946528;29;20339;-70
2023/11/23 10:03:56;;;;;;;4.57;2.80;;;;;;;-145.63;44.12;38969.50;4946879;29;20300;-69
2023/11/23 10:06:22;;;;;;;3.22;2.50;;;;;;;-145.63;43.54;39045.75;4945639;29;20046;-69
2023/11/23 10:08:49;;;;;;;4.63;2.70;;;;;;;-145.63;42.70;39024.25;4947158;29;20200;-71
2023/11/23 10:11:15;;;;;;;7.22;2.63;;;;;;;-145.63;42.66;38987.09;4946831;29;20034;-68
2023/11/23 10:13:41;;;;;;;3.30;2.70;;;;;;;-145.63;42.52;38985.13;4946514;29;20023;-68
2023/11/23 10:16:11;;;;;;;5.22;2.80;;;;;;;-145.63;42.98;39057.50;4945595;29;20031;-70
2023/11/23 10:18:43;;;;;;;4.43;2.72;;;;;;;-145.63;42.66;38977.31;4946543;29;20037;-70
2023/11/23 10:21:12;;;;;;;5.68;2.85;;;;;;;-145.63;43.24;38994.91;4946265;29;20295;-69
2023/11/23 10:23:43;;;;;;;4.40;2.65;;;;;;;-145.63;42.77;38996.88;4946345;29;20312;-68
2023/11/23 10:26:09;;;;;;;4.45;2.95;;;;;;;-145.63;42.91;38959.72;4945041;29;20074;-70
2023/11/23 10:28:36;;;;;;;6.47;2.78;;;;;;;-145.63;43.66;39016.44;4946194;29;20316;-71
2023/11/23 10:31:06;;;;;;;4.40;2.80;;;;;;;-145.63;43.04;38977.31;4946230;29;20094;-70
2023/11/23 10:33:33;;;;;;;3.47;2.03;;;;;;;-145.63;43.30;39008.59;4946198;29;20031;-68
2023/11/23 10:36:04;;;;;;;3.22;2.28;;;;;;;-145.63;42.52;39043.81;4959184;29;20055;-68
2023/11/23 10:38:40;;;;;;;4.03;2.33;;;;;;;-145.63;43.98;39002.72;4965285;28;20203;-69
2023/11/23 10:41:08;;;;;;;4.65;2.47;;;;;;;-145.63;43.15;39114.22;4958771;28;20300;-68
2023/11/23 10:43:37;;;;;;;3.55;2.42;;;;;;;-145.63;43.93;38985.13;4945952;28;20024;-67
2023/11/23 10:46:08;;;;;;;5.25;2.88;;;;;;;-145.63;43.26;38975.34;4942053;29;20043;-67
2023/11/23 10:48:34;;;;;;;2.87;2.40;;;;;;;-145.63;43.26;39000.78;4945079;29;20020;-67
2023/11/23 10:51:05;;;;;;;3.55;2.80;;;;;;;-145.63;42.93;39016.44;4945955;29;20426;-68
2023/11/23 10:53:32;;;;;;;4.35;2.80;;;;;;;-145.63;43.51;38959.72;4944261;29;20188;-67
2023/11/23 10:56:10;;;;;;;4.60;2.65;;;;;;;-145.63;43.47;39000.78;4976212;28;20366;-69
2023/11/23 10:58:38;;;;;;;3.58;2.60;;;;;;;-145.63;43.04;38971.44;4945518;29;20300;-69
2023/11/23 11:01:07;;;;;;;5.75;3.47;;;;;;;-145.63;43.49;39049.66;4944974;28;20091;-70
2023/11/23 11:03:35;;;;;;;3.75;2.50;;;;;;;-145.63;41.94;39055.53;4945678;29;20027;-69
2023/11/23 11:06:12;;;;;;;5.07;2.72;;;;;;;-145.63;42.43;39024.25;4945368;28;20035;-69
2023/11/23 11:08:43;;;;;;;6.80;2.67;;;;;;;-145.63;42.79;39000.78;4945543;29;20029;-69
2023/11/23 11:11:11;;;;;;;5.07;2.58;;;;;;;-145.63;43.31;38983.19;4945716;29;20020;-69
2023/11/23 11:13:42;;;;;;;3.15;2.60;;;;;;;-145.63;43.28;38991.00;4945429;29;20035;-69